sensor_id;sensor_type;location;lat;lon;timestamp;pressure;altitude;pressure_sealevel;temperature;humidity
22830;BME280;11581;51.250;6.778;2023-05-07T00:01:08;101154.50;;;19.11;60.75
22830;BME280;11581;51.250;6.778;2023-05-07T00:03:36;101115.16;;;18.88;60.82
22830;BME280;11581;51.250;6.778;2023-05-07T00:06:03;101144.06;;;19.08;60.50
22830;BME280;11581;51.250;6.778;2023-05-07T00:08:29;101153.06;;;19.15;60.44
22830;BME280;11581;51.250;6.778;2023-05-07T00:10:56;101132.94;;;18.97;60.50
22830;BME280;11581;51.250;6.778;2023-05-07T00:13:22;101149.13;;;19.18;60.37
22830;BME280;11581;51.250;6.778;2023-05-07T00:15:49;101145.22;;;19.20;60.39
22830;BME280;11581;51.250;6.778;2023-05-07T00:18:15;101151.66;;;19.19;60.50
22830;BME280;11581;51.250;6.778;2023-05-07T00:20:42;101153.53;;;19.19;60.42
22830;BME280;11581;51.250;6.778;2023-05-07T00:23:09;101149.97;;;19.18;60.20
22830;BME280;11581;51.250;6.778;2023-05-07T00:25:35;101140.78;;;19.13;60.50
22830;BME280;11581;51.250;6.778;2023-05-07T00:28:01;101090.94;;;18.80;60.39
22830;BME280;11581;51.250;6.778;2023-05-07T00:30:29;101130.66;;;19.00;59.92
22830;BME280;11581;51.250;6.778;2023-05-07T00:32:55;101139.94;;;19.12;59.89
22830;BME280;11581;51.250;6.778;2023-05-07T00:35:22;101099.31;;;18.85;60.29
22830;BME280;11581;51.250;6.778;2023-05-07T00:37:49;101116.44;;;18.92;60.17
22830;BME280;11581;51.250;6.778;2023-05-07T00:40:15;101140.06;;;19.04;60.02
22830;BME280;11581;51.250;6.778;2023-05-07T00:42:41;101101.50;;;18.75;60.21
22830;BME280;11581;51.250;6.778;2023-05-07T00:45:15;101137.75;;;19.01;60.95
22830;BME280;11581;51.250;6.778;2023-05-07T00:47:42;101135.63;;;18.97;60.22
22830;BME280;11581;51.250;6.778;2023-05-07T00:50:09;101137.75;;;19.01;60.26
22830;BME280;11581;51.250;6.778;2023-05-07T00:52:37;101111.75;;;18.79;60.47
22830;BME280;11581;51.250;6.778;2023-05-07T00:55:05;101132.06;;;18.96;60.73
22830;BME280;11581;51.250;6.778;2023-05-07T00:57:36;101140.47;;;19.01;60.89
22830;BME280;11581;51.250;6.778;2023-05-07T01:00:05;101091.94;;;18.72;60.33
22830;BME280;11581;51.250;6.778;2023-05-07T01:02:33;101130.22;;;18.97;60.26
22830;BME280;11581;51.250;6.778;2023-05-07T01:05:00;101129.56;;;18.95;60.60
22830;BME280;11581;51.250;6.778;2023-05-07T01:07:28;101106.34;;;18.79;60.60
22830;BME280;11581;51.250;6.778;2023-05-07T01:09:56;101024.25;;;18.24;60.93
22830;BME280;11581;51.250;6.778;2023-05-07T01:12:24;101053.56;;;18.41;61.04
22830;BME280;11581;51.250;6.778;2023-05-07T01:14:54;101139.09;;;18.91;60.64
22830;BME280;11581;51.250;6.778;2023-05-07T01:17:20;101076.72;;;18.50;60.74
22830;BME280;11581;51.250;6.778;2023-05-07T01:19:47;101044.91;;;18.31;60.81
22830;BME280;11581;51.250;6.778;2023-05-07T01:22:15;101136.69;;;18.81;60.99
22830;BME280;11581;51.250;6.778;2023-05-07T01:24:48;101130.91;;;18.84;60.63
22830;BME280;11581;51.250;6.778;2023-05-07T01:27:15;101127.56;;;18.82;61.08
22830;BME280;11581;51.250;6.778;2023-05-07T01:29:42;101070.22;;;18.45;61.09
22830;BME280;11581;51.250;6.778;2023-05-07T01:32:09;101110.75;;;18.66;61.13
22830;BME280;11581;51.250;6.778;2023-05-07T01:34:36;101055.88;;;18.30;61.16
22830;BME280;11581;51.250;6.778;2023-05-07T01:37:04;101128.06;;;18.71;61.30
22830;BME280;11581;51.250;6.778;2023-05-07T01:39:31;101118.19;;;18.64;61.53
22830;BME280;11581;51.250;6.778;2023-05-07T01:41:58;101133.22;;;18.66;61.45
22830;BME280;11581;51.250;6.778;2023-05-07T01:44:26;101119.06;;;18.64;61.35
22830;BME280;11581;51.250;6.778;2023-05-07T01:46:54;101025.41;;;18.00;61.37
22830;BME280;11581;51.250;6.778;2023-05-07T01:49:21;101123.53;;;18.57;61.35
22830;BME280;11581;51.250;6.778;2023-05-07T01:51:47;101122.25;;;18.53;61.67
22830;BME280;11581;51.250;6.778;2023-05-07T01:54:14;101126.81;;;18.53;61.92
22830;BME280;11581;51.250;6.778;2023-05-07T01:56:41;101102.34;;;18.40;61.83
22830;BME280;11581;51.250;6.778;2023-05-07T01:59:08;101119.47;;;18.47;61.90
22830;BME280;11581;51.250;6.778;2023-05-07T02:01:34;101116.69;;;18.40;61.86
22830;BME280;11581;51.250;6.778;2023-05-07T02:04:01;101127.94;;;18.44;62.25
22830;BME280;11581;51.250;6.778;2023-05-07T02:06:29;101119.22;;;18.42;62.37
22830;BME280;11581;51.250;6.778;2023-05-07T02:09:00;101117.50;;;18.41;62.13
22830;BME280;11581;51.250;6.778;2023-05-07T02:11:27;101120.41;;;18.39;62.30
22830;BME280;11581;51.250;6.778;2023-05-07T02:13:54;101116.22;;;18.37;62.22
22830;BME280;11581;51.250;6.778;2023-05-07T02:16:20;101114.44;;;18.29;62.22
22830;BME280;11581;51.250;6.778;2023-05-07T02:18:48;101096.84;;;18.19;62.19
22830;BME280;11581;51.250;6.778;2023-05-07T02:21:15;101024.88;;;17.75;61.93
22830;BME280;11581;51.250;6.778;2023-05-07T02:23:41;101119.84;;;18.29;61.90
22830;BME280;11581;51.250;6.778;2023-05-07T02:26:08;101118.16;;;18.28;62.00
22830;BME280;11581;51.250;6.778;2023-05-07T02:28:35;101092.25;;;17.98;61.96
22830;BME280;11581;51.250;6.778;2023-05-07T02:31:03;101124.13;;;18.24;62.05
22830;BME280;11581;51.250;6.778;2023-05-07T02:33:31;101118.91;;;18.22;61.96
22830;BME280;11581;51.250;6.778;2023-05-07T02:36:08;101095.66;;;18.07;62.47
22830;BME280;11581;51.250;6.778;2023-05-07T02:38:42;101098.19;;;18.08;61.75
22830;BME280;11581;51.250;6.778;2023-05-07T02:41:09;101101.88;;;18.07;61.61
22830;BME280;11581;51.250;6.778;2023-05-07T02:43:36;101130.84;;;18.13;61.82
22830;BME280;11581;51.250;6.778;2023-05-07T02:46:07;101125.63;;;18.12;62.44
22830;BME280;11581;51.250;6.778;2023-05-07T02:48:37;101030.84;;;17.56;61.97
22830;BME280;11581;51.250;6.778;2023-05-07T02:51:04;101103.66;;;18.00;61.72
22830;BME280;11581;51.250;6.778;2023-05-07T02:53:32;101113.44;;;18.01;61.82
22830;BME280;11581;51.250;6.778;2023-05-07T02:56:00;101125.91;;;18.02;61.80
22830;BME280;11581;51.250;6.778;2023-05-07T02:58:26;101104.50;;;17.86;61.74
22830;BME280;11581;51.250;6.778;2023-05-07T03:00:53;101070.72;;;17.61;61.71
22830;BME280;11581;51.250;6.778;2023-05-07T03:03:34;101131.03;;;17.97;61.93
22830;BME280;11581;51.250;6.778;2023-05-07T03:06:01;101114.28;;;17.87;61.84
22830;BME280;11581;51.250;6.778;2023-05-07T03:08:28;101134.75;;;17.96;61.93
22830;BME280;11581;51.250;6.778;2023-05-07T03:10:54;101134.75;;;17.96;61.81
22830;BME280;11581;51.250;6.778;2023-05-07T03:13:21;101137.44;;;17.96;61.81
22830;BME280;11581;51.250;6.778;2023-05-07T03:15:47;101139.47;;;17.94;62.05
22830;BME280;11581;51.250;6.778;2023-05-07T03:18:14;101127.03;;;17.93;61.97
22830;BME280;11581;51.250;6.778;2023-05-07T03:20:40;101108.88;;;17.87;62.15
22830;BME280;11581;51.250;6.778;2023-05-07T03:23:07;101119.78;;;17.94;62.04
22830;BME280;11581;51.250;6.778;2023-05-07T03:25:33;101057.91;;;17.63;62.24
22830;BME280;11581;51.250;6.778;2023-05-07T03:28:00;101096.59;;;17.85;62.17
22830;BME280;11581;51.250;6.778;2023-05-07T03:30:35;101106.91;;;17.96;62.16
22830;BME280;11581;51.250;6.778;2023-05-07T03:33:02;101106.72;;;17.97;62.20
22830;BME280;11581;51.250;6.778;2023-05-07T03:35:28;101110.16;;;17.91;62.21
22830;BME280;11581;51.250;6.778;2023-05-07T03:37:55;101120.22;;;17.97;62.33
22830;BME280;11581;51.250;6.778;2023-05-07T03:40:21;101115.69;;;17.98;62.25
22830;BME280;11581;51.250;6.778;2023-05-07T03:42:52;101109.44;;;17.97;62.15
22830;BME280;11581;51.250;6.778;2023-05-07T03:45:22;101100.41;;;17.90;62.42
22830;BME280;11581;51.250;6.778;2023-05-07T03:47:57;101113.16;;;17.96;62.32
22830;BME280;11581;51.250;6.778;2023-05-07T03:50:23;101107.75;;;17.96;62.30
22830;BME280;11581;51.250;6.778;2023-05-07T03:52:50;101070.47;;;17.70;62.00
22830;BME280;11581;51.250;6.778;2023-05-07T03:55:19;101119.41;;;17.97;62.01
22830;BME280;11581;51.250;6.778;2023-05-07T03:57:51;101113.91;;;17.90;62.06
22830;BME280;11581;51.250;6.778;2023-05-07T04:00:18;101127.69;;;17.95;62.08
22830;BME280;11581;51.250;6.778;2023-05-07T04:02:47;101135.97;;;17.94;62.18
22830;BME280;11581;51.250;6.778;2023-05-07T04:05:20;101129.06;;;17.91;62.14
22830;BME280;11581;51.250;6.778;2023-05-07T04:07:50;101136.16;;;17.92;62.04
22830;BME280;11581;51.250;6.778;2023-05-07T04:10:21;101125.06;;;17.87;62.27
22830;BME280;11581;51.250;6.778;2023-05-07T04:12:51;101114.66;;;17.84;62.20
22830;BME280;11581;51.250;6.778;2023-05-07T04:15:20;101133.09;;;17.95;62.35
22830;BME280;11581;51.250;6.778;2023-05-07T04:17:47;101136.41;;;17.97;62.19
22830;BME280;11581;51.250;6.778;2023-05-07T04:20:17;101104.59;;;17.78;62.23
22830;BME280;11581;51.250;6.778;2023-05-07T04:22:47;101139.41;;;18.02;62.20
22830;BME280;11581;51.250;6.778;2023-05-07T04:25:15;101139.03;;;18.05;62.47
22830;BME280;11581;51.250;6.778;2023-05-07T04:27:42;101129.47;;;18.03;62.31
22830;BME280;11581;51.250;6.778;2023-05-07T04:30:09;101139.13;;;18.12;62.22
22830;BME280;11581;51.250;6.778;2023-05-07T04:32:38;101124.31;;;18.08;62.02
22830;BME280;11581;51.250;6.778;2023-05-07T04:35:05;101142.94;;;18.17;62.04
22830;BME280;11581;51.250;6.778;2023-05-07T04:37:33;101147.94;;;18.20;61.80
22830;BME280;11581;51.250;6.778;2023-05-07T04:40:00;101138.84;;;18.21;61.87
22830;BME280;11581;51.250;6.778;2023-05-07T04:42:27;101071.84;;;17.81;61.76
22830;BME280;11581;51.250;6.778;2023-05-07T04:44:54;101134.75;;;18.25;62.07
22830;BME280;11581;51.250;6.778;2023-05-07T04:47:22;101138.91;;;18.28;61.76
22830;BME280;11581;51.250;6.778;2023-05-07T04:49:49;101133.31;;;18.29;61.63
22830;BME280;11581;51.250;6.778;2023-05-07T04:52:16;101131.00;;;18.26;61.90
22830;BME280;11581;51.250;6.778;2023-05-07T04:54:43;101146.28;;;18.34;61.83
22830;BME280;11581;51.250;6.778;2023-05-07T04:57:09;101139.69;;;18.36;61.58
22830;BME280;11581;51.250;6.778;2023-05-07T04:59:36;101136.41;;;18.41;61.51
22830;BME280;11581;51.250;6.778;2023-05-07T05:02:02;101089.06;;;18.09;61.71
22830;BME280;11581;51.250;6.778;2023-05-07T05:04:30;101092.97;;;18.21;61.51
22830;BME280;11581;51.250;6.778;2023-05-07T05:06:57;101134.06;;;18.52;61.38
22830;BME280;11581;51.250;6.778;2023-05-07T05:09:24;101142.63;;;18.56;61.01
22830;BME280;11581;51.250;6.778;2023-05-07T05:11:50;101075.38;;;18.11;60.84
22830;BME280;11581;51.250;6.778;2023-05-07T05:14:17;101151.22;;;18.59;60.93
22830;BME280;11581;51.250;6.778;2023-05-07T05:16:43;101136.38;;;18.55;60.86
22830;BME280;11581;51.250;6.778;2023-05-07T05:19:10;101153.50;;;18.62;60.73
22830;BME280;11581;51.250;6.778;2023-05-07T05:21:38;101151.47;;;18.64;60.75
22830;BME280;11581;51.250;6.778;2023-05-07T05:24:07;101155.84;;;18.65;60.64
22830;BME280;11581;51.250;6.778;2023-05-07T05:26:34;101151.09;;;18.67;60.54
22830;BME280;11581;51.250;6.778;2023-05-07T05:29:01;101135.75;;;18.53;60.49
22830;BME280;11581;51.250;6.778;2023-05-07T05:31:29;101146.59;;;18.74;60.40
22830;BME280;11581;51.250;6.778;2023-05-07T05:33:56;101077.19;;;18.39;60.51
22830;BME280;11581;51.250;6.778;2023-05-07T05:36:23;101154.22;;;18.85;60.27
22830;BME280;11581;51.250;6.778;2023-05-07T05:38:53;101150.75;;;18.91;60.13
22830;BME280;11581;51.250;6.778;2023-05-07T05:41:21;101151.84;;;18.97;59.47
22830;BME280;11581;51.250;6.778;2023-05-07T05:43:48;101139.66;;;18.86;59.59
22830;BME280;11581;51.250;6.778;2023-05-07T05:46:15;101161.09;;;19.09;59.52
22830;BME280;11581;51.250;6.778;2023-05-07T05:48:42;101175.34;;;19.17;59.32
22830;BME280;11581;51.250;6.778;2023-05-07T05:51:09;101157.06;;;19.19;59.49
22830;BME280;11581;51.250;6.778;2023-05-07T05:53:36;101175.13;;;19.33;58.97
22830;BME280;11581;51.250;6.778;2023-05-07T05:56:02;101113.75;;;19.13;58.55
22830;BME280;11581;51.250;6.778;2023-05-07T05:58:31;101158.00;;;19.54;58.07
22830;BME280;11581;51.250;6.778;2023-05-07T06:01:00;101162.44;;;19.61;57.99
22830;BME280;11581;51.250;6.778;2023-05-07T06:03:28;101168.75;;;19.68;57.82
22830;BME280;11581;51.250;6.778;2023-05-07T06:05:58;101111.53;;;19.44;57.36
22830;BME280;11581;51.250;6.778;2023-05-07T06:08:25;101064.69;;;19.16;57.30
22830;BME280;11581;51.250;6.778;2023-05-07T06:10:52;101171.16;;;19.84;57.08
22830;BME280;11581;51.250;6.778;2023-05-07T06:13:18;101152.81;;;19.80;56.85
22830;BME280;11581;51.250;6.778;2023-05-07T06:15:45;101163.28;;;19.89;57.13
22830;BME280;11581;51.250;6.778;2023-05-07T06:18:12;101166.47;;;20.00;56.76
22830;BME280;11581;51.250;6.778;2023-05-07T06:20:39;101174.53;;;20.14;57.10
22830;BME280;11581;51.250;6.778;2023-05-07T06:23:11;101174.97;;;20.18;56.46
22830;BME280;11581;51.250;6.778;2023-05-07T06:25:38;101180.09;;;20.40;56.04
22830;BME280;11581;51.250;6.778;2023-05-07T06:28:04;101180.13;;;20.53;55.87
22830;BME280;11581;51.250;6.778;2023-05-07T06:30:33;101110.84;;;20.25;55.48
22830;BME280;11581;51.250;6.778;2023-05-07T06:32:59;101191.72;;;20.81;55.34
22830;BME280;11581;51.250;6.778;2023-05-07T06:35:26;101183.84;;;20.93;54.80
22830;BME280;11581;51.250;6.778;2023-05-07T06:37:53;101188.28;;;21.07;54.30
22830;BME280;11581;51.250;6.778;2023-05-07T06:40:23;101182.06;;;21.19;53.94
22830;BME280;11581;51.250;6.778;2023-05-07T06:42:49;101190.44;;;21.31;53.59
22830;BME280;11581;51.250;6.778;2023-05-07T06:45:39;101116.94;;;21.00;53.26
22830;BME280;11581;51.250;6.778;2023-05-07T06:48:06;101186.50;;;21.53;53.09
22830;BME280;11581;51.250;6.778;2023-05-07T06:50:43;101173.13;;;21.58;52.83
22830;BME280;11581;51.250;6.778;2023-05-07T06:53:10;101191.72;;;21.74;53.30
22830;BME280;11581;51.250;6.778;2023-05-07T06:55:37;101169.38;;;21.85;53.72
22830;BME280;11581;51.250;6.778;2023-05-07T06:58:05;101184.34;;;22.20;53.80
22830;BME280;11581;51.250;6.778;2023-05-07T07:00:31;101150.84;;;22.39;53.15
22830;BME280;11581;51.250;6.778;2023-05-07T07:02:58;101145.75;;;22.69;52.31
22830;BME280;11581;51.250;6.778;2023-05-07T07:05:26;101182.41;;;23.35;51.26
22830;BME280;11581;51.250;6.778;2023-05-07T07:07:54;101147.16;;;23.46;50.43
22830;BME280;11581;51.250;6.778;2023-05-07T07:10:21;101162.22;;;23.98;49.16
22830;BME280;11581;51.250;6.778;2023-05-07T07:12:50;101188.03;;;24.50;48.01
22830;BME280;11581;51.250;6.778;2023-05-07T07:15:17;101194.22;;;24.81;47.21
22830;BME280;11581;51.250;6.778;2023-05-07T07:17:48;101122.78;;;24.73;46.26
22830;BME280;11581;51.250;6.778;2023-05-07T07:20:15;101167.94;;;25.28;46.98
22830;BME280;11581;51.250;6.778;2023-05-07T07:22:43;101180.75;;;25.80;46.86
22830;BME280;11581;51.250;6.778;2023-05-07T07:25:10;101192.41;;;26.33;45.55
22830;BME280;11581;51.250;6.778;2023-05-07T07:27:37;101188.53;;;26.80;43.52
22830;BME280;11581;51.250;6.778;2023-05-07T07:30:06;101195.28;;;27.17;42.03
22830;BME280;11581;51.250;6.778;2023-05-07T07:32:35;101176.91;;;27.29;41.51
22830;BME280;11581;51.250;6.778;2023-05-07T07:35:01;101197.88;;;27.68;40.90
22830;BME280;11581;51.250;6.778;2023-05-07T07:37:28;101194.16;;;27.91;40.27
22830;BME280;11581;51.250;6.778;2023-05-07T07:39:55;101198.22;;;28.05;39.55
22830;BME280;11581;51.250;6.778;2023-05-07T07:42:22;101195.13;;;28.18;39.76
22830;BME280;11581;51.250;6.778;2023-05-07T07:44:49;101198.91;;;28.34;39.36
22830;BME280;11581;51.250;6.778;2023-05-07T07:47:18;101198.13;;;28.55;39.40
22830;BME280;11581;51.250;6.778;2023-05-07T07:49:47;101166.09;;;28.60;38.68
22830;BME280;11581;51.250;6.778;2023-05-07T07:52:13;101199.84;;;29.04;37.84
22830;BME280;11581;51.250;6.778;2023-05-07T07:54:41;101192.34;;;29.21;37.32
22830;BME280;11581;51.250;6.778;2023-05-07T07:57:08;101196.91;;;29.37;36.76
22830;BME280;11581;51.250;6.778;2023-05-07T07:59:35;101192.34;;;29.47;36.41
22830;BME280;11581;51.250;6.778;2023-05-07T08:02:03;101142.09;;;29.20;36.01
22830;BME280;11581;51.250;6.778;2023-05-07T08:04:29;101165.63;;;29.38;36.18
22830;BME280;11581;51.250;6.778;2023-05-07T08:07:01;101193.31;;;29.63;36.06
22830;BME280;11581;51.250;6.778;2023-05-07T08:09:29;101187.38;;;29.71;36.63
22830;BME280;11581;51.250;6.778;2023-05-07T08:11:58;101184.81;;;29.96;36.72
22830;BME280;11581;51.250;6.778;2023-05-07T08:14:25;101170.34;;;30.10;36.32
22830;BME280;11581;51.250;6.778;2023-05-07T08:16:54;101169.00;;;30.70;36.15
22830;BME280;11581;51.250;6.778;2023-05-07T08:19:21;101125.59;;;30.97;35.06
22830;BME280;11581;51.250;6.778;2023-05-07T08:21:48;101196.78;;;32.00;34.53
22830;BME280;11581;51.250;6.778;2023-05-07T08:24:17;101161.97;;;32.29;34.09
22830;BME280;11581;51.250;6.778;2023-05-07T08:26:45;101157.91;;;32.90;33.19
22830;BME280;11581;51.250;6.778;2023-05-07T08:29:12;101211.22;;;33.73;32.29
22830;BME280;11581;51.250;6.778;2023-05-07T08:31:38;101206.97;;;34.19;30.84
22830;BME280;11581;51.250;6.778;2023-05-07T08:34:05;101212.75;;;34.51;29.65
22830;BME280;11581;51.250;6.778;2023-05-07T08:36:34;101139.59;;;34.29;29.25
22830;BME280;11581;51.250;6.778;2023-05-07T08:39:01;101175.34;;;34.49;28.82
22830;BME280;11581;51.250;6.778;2023-05-07T08:41:29;101209.75;;;34.66;28.43
22830;BME280;11581;51.250;6.778;2023-05-07T08:43:58;101134.13;;;34.00;27.98
22830;BME280;11581;51.250;6.778;2023-05-07T08:46:25;101208.19;;;34.37;28.58
22830;BME280;11581;51.250;6.778;2023-05-07T08:48:54;101178.28;;;34.10;28.60
22830;BME280;11581;51.250;6.778;2023-05-07T08:51:21;101197.41;;;34.06;28.74
22830;BME280;11581;51.250;6.778;2023-05-07T08:53:49;101206.53;;;34.07;28.52
22830;BME280;11581;51.250;6.778;2023-05-07T08:56:22;101205.47;;;34.03;28.92
22830;BME280;11581;51.250;6.778;2023-05-07T08:58:50;101216.56;;;33.98;28.61
22830;BME280;11581;51.250;6.778;2023-05-07T09:01:21;101203.69;;;33.88;28.40
22830;BME280;11581;51.250;6.778;2023-05-07T09:03:51;101205.69;;;33.73;28.28
22830;BME280;11581;51.250;6.778;2023-05-07T09:06:18;101212.50;;;33.57;28.33
22830;BME280;11581;51.250;6.778;2023-05-07T09:08:53;101147.59;;;33.06;27.99
22830;BME280;11581;51.250;6.778;2023-05-07T09:11:22;101168.78;;;33.15;29.17
22830;BME280;11581;51.250;6.778;2023-05-07T09:13:55;101198.78;;;33.42;27.74
22830;BME280;11581;51.250;6.778;2023-05-07T09:16:23;101197.63;;;33.48;28.85
22830;BME280;11581;51.250;6.778;2023-05-07T09:18:54;101205.63;;;33.49;28.37
22830;BME280;11581;51.250;6.778;2023-05-07T09:21:23;101209.94;;;33.65;28.53
22830;BME280;11581;51.250;6.778;2023-05-07T09:23:53;101204.59;;;33.74;28.23
22830;BME280;11581;51.250;6.778;2023-05-07T09:26:24;101200.78;;;33.70;28.24
22830;BME280;11581;51.250;6.778;2023-05-07T09:28:51;101214.88;;;33.68;28.02
22830;BME280;11581;51.250;6.778;2023-05-07T09:31:19;101205.06;;;33.52;27.55
22830;BME280;11581;51.250;6.778;2023-05-07T09:33:48;101207.63;;;33.34;27.79
22830;BME280;11581;51.250;6.778;2023-05-07T09:36:16;101208.03;;;33.12;28.13
22830;BME280;11581;51.250;6.778;2023-05-07T09:38:43;101175.16;;;32.57;28.17
22830;BME280;11581;51.250;6.778;2023-05-07T09:41:13;101153.44;;;32.21;28.36
22830;BME280;11581;51.250;6.778;2023-05-07T09:43:54;101219.38;;;32.27;28.11
22830;BME280;11581;51.250;6.778;2023-05-07T09:46:30;101228.25;;;31.99;28.48
22830;BME280;11581;51.250;6.778;2023-05-07T09:49:02;101189.91;;;31.62;29.80
22830;BME280;11581;51.250;6.778;2023-05-07T09:51:48;101135.81;;;31.11;29.97
22830;BME280;11581;51.250;6.778;2023-05-07T09:54:16;101217.19;;;31.49;29.95
22830;BME280;11581;51.250;6.778;2023-05-07T09:56:48;101161.47;;;31.17;30.14
22830;BME280;11581;51.250;6.778;2023-05-07T09:59:16;101198.44;;;31.46;30.40
22830;BME280;11581;51.250;6.778;2023-05-07T10:01:45;101106.03;;;30.98;30.08
22830;BME280;11581;51.250;6.778;2023-05-07T10:04:12;101094.22;;;30.98;30.30
22830;BME280;11581;51.250;6.778;2023-05-07T10:06:42;101191.56;;;31.73;29.67
22830;BME280;11581;51.250;6.778;2023-05-07T10:09:09;101200.41;;;31.85;30.11
22830;BME280;11581;51.250;6.778;2023-05-07T10:11:36;101160.94;;;31.80;29.63
22830;BME280;11581;51.250;6.778;2023-05-07T10:14:04;101195.94;;;32.20;29.98
22830;BME280;11581;51.250;6.778;2023-05-07T10:16:33;101193.94;;;32.55;29.62
22830;BME280;11581;51.250;6.778;2023-05-07T10:19:04;101190.75;;;32.97;29.48
22830;BME280;11581;51.250;6.778;2023-05-07T10:21:35;101133.28;;;32.99;28.08
22830;BME280;11581;51.250;6.778;2023-05-07T10:24:09;101195.72;;;33.77;27.44
22830;BME280;11581;51.250;6.778;2023-05-07T10:26:42;101204.41;;;33.99;27.56
22830;BME280;11581;51.250;6.778;2023-05-07T10:29:32;101187.59;;;34.19;27.38
22830;BME280;11581;51.250;6.778;2023-05-07T10:34:54;101194.22;;;34.47;26.89
22830;BME280;11581;51.250;6.778;2023-05-07T10:37:24;101191.50;;;34.65;27.31
22830;BME280;11581;51.250;6.778;2023-05-07T10:39:51;101198.97;;;34.88;27.03
22830;BME280;11581;51.250;6.778;2023-05-07T10:42:19;101202.53;;;35.12;26.38
22830;BME280;11581;51.250;6.778;2023-05-07T10:44:50;101074.88;;;34.48;25.69
22830;BME280;11581;51.250;6.778;2023-05-07T10:47:22;101199.78;;;35.49;24.59
22830;BME280;11581;51.250;6.778;2023-05-07T10:52:37;101046.28;;;34.53;24.39
22830;BME280;11581;51.250;6.778;2023-05-07T10:55:20;101196.13;;;35.35;23.93
22830;BME280;11581;51.250;6.778;2023-05-07T10:58:27;101194.22;;;35.31;24.46
22830;BME280;11581;51.250;6.778;2023-05-07T11:01:02;101190.09;;;35.28;24.21
22830;BME280;11581;51.250;6.778;2023-05-07T11:03:34;101189.03;;;35.24;24.54
22830;BME280;11581;51.250;6.778;2023-05-07T11:06:15;101185.97;;;35.26;23.82
22830;BME280;11581;51.250;6.778;2023-05-07T11:09:08;101183.22;;;35.44;24.71
22830;BME280;11581;51.250;6.778;2023-05-07T11:11:49;101149.34;;;35.47;24.28
22830;BME280;11581;51.250;6.778;2023-05-07T11:14:44;101128.25;;;35.78;24.03
22830;BME280;11581;51.250;6.778;2023-05-07T11:17:21;101126.28;;;36.11;23.86
22830;BME280;11581;51.250;6.778;2023-05-07T11:19:55;101129.59;;;36.40;23.59
22830;BME280;11581;51.250;6.778;2023-05-07T11:22:42;101170.00;;;36.87;23.08
22830;BME280;11581;51.250;6.778;2023-05-07T11:25:31;101170.31;;;36.85;22.76
22830;BME280;11581;51.250;6.778;2023-05-07T11:28:09;101171.84;;;36.64;21.93
22830;BME280;11581;51.250;6.778;2023-05-07T11:30:42;101121.97;;;36.05;22.20
22830;BME280;11581;51.250;6.778;2023-05-07T11:33:11;101166.94;;;35.88;22.52
22830;BME280;11581;51.250;6.778;2023-05-07T11:35:41;101093.09;;;34.91;22.70
22830;BME280;11581;51.250;6.778;2023-05-07T11:38:11;101153.03;;;34.82;23.25
22830;BME280;11581;51.250;6.778;2023-05-07T11:40:53;101169.31;;;34.47;23.82
22830;BME280;11581;51.250;6.778;2023-05-07T11:43:20;101108.28;;;33.81;24.02
22830;BME280;11581;51.250;6.778;2023-05-07T11:45:47;101097.06;;;33.34;24.29
22830;BME280;11581;51.250;6.778;2023-05-07T11:48:19;101169.06;;;33.57;24.62
22830;BME280;11581;51.250;6.778;2023-05-07T11:50:59;101171.69;;;33.34;25.06
22830;BME280;11581;51.250;6.778;2023-05-07T11:53:39;101139.31;;;33.01;25.70
22830;BME280;11581;51.250;6.778;2023-05-07T11:56:17;101173.25;;;33.11;25.83
22830;BME280;11581;51.250;6.778;2023-05-07T11:58:45;101127.81;;;32.79;25.78
22830;BME280;11581;51.250;6.778;2023-05-07T12:01:13;101172.47;;;33.01;26.00
22830;BME280;11581;51.250;6.778;2023-05-07T12:03:41;101159.59;;;32.86;26.17
22830;BME280;11581;51.250;6.778;2023-05-07T12:06:10;101174.75;;;32.89;26.25
22830;BME280;11581;51.250;6.778;2023-05-07T12:08:38;101179.22;;;32.80;26.48
22830;BME280;11581;51.250;6.778;2023-05-07T12:11:24;101179.53;;;32.68;26.64
22830;BME280;11581;51.250;6.778;2023-05-07T12:13:51;101165.50;;;32.55;26.69
22830;BME280;11581;51.250;6.778;2023-05-07T12:16:19;101154.25;;;32.31;26.54
22830;BME280;11581;51.250;6.778;2023-05-07T12:18:46;101165.84;;;32.28;26.54
22830;BME280;11581;51.250;6.778;2023-05-07T12:21:12;101143.03;;;31.97;26.42
22830;BME280;11581;51.250;6.778;2023-05-07T12:23:39;101151.28;;;31.72;26.71
22830;BME280;11581;51.250;6.778;2023-05-07T12:26:06;101150.75;;;31.65;27.00
22830;BME280;11581;51.250;6.778;2023-05-07T12:28:37;101172.81;;;31.65;26.92
22830;BME280;11581;51.250;6.778;2023-05-07T12:31:05;101184.94;;;31.49;27.07
22830;BME280;11581;51.250;6.778;2023-05-07T12:33:32;101192.38;;;31.34;27.21
22830;BME280;11581;51.250;6.778;2023-05-07T12:36:00;101158.41;;;31.03;27.73
22830;BME280;11581;51.250;6.778;2023-05-07T12:38:34;101178.78;;;31.02;28.22
22830;BME280;11581;51.250;6.778;2023-05-07T12:41:01;101183.97;;;30.89;28.19
22830;BME280;11581;51.250;6.778;2023-05-07T12:43:28;101184.22;;;30.77;28.38
22830;BME280;11581;51.250;6.778;2023-05-07T12:46:00;101190.72;;;30.66;28.63
22830;BME280;11581;51.250;6.778;2023-05-07T12:48:27;101181.34;;;30.57;29.05
22830;BME280;11581;51.250;6.778;2023-05-07T12:50:54;101170.78;;;30.39;29.20
22830;BME280;11581;51.250;6.778;2023-05-07T12:53:22;101177.34;;;30.33;29.22
22830;BME280;11581;51.250;6.778;2023-05-07T12:55:55;101177.34;;;30.33;29.22
22830;BME280;11581;51.250;6.778;2023-05-07T12:58:26;101170.16;;;30.27;29.35
22830;BME280;11581;51.250;6.778;2023-05-07T13:00:54;101161.81;;;30.12;28.97
22830;BME280;11581;51.250;6.778;2023-05-07T13:03:28;101169.22;;;30.11;29.16
22830;BME280;11581;51.250;6.778;2023-05-07T13:05:59;101193.78;;;30.18;29.66